sensor_id;sensor_type;location;lat;lon;timestamp;pressure;altitude;pressure_sealevel;temperature;humidity
70256;BME280;57669;52.624;-1.688;2023-04-06T00:01:28;100758.34;;;7.81;65.46
70256;BME280;57669;52.624;-1.688;2023-04-06T00:03:53;100749.72;;;8.87;62.76
70256;BME280;57669;52.624;-1.688;2023-04-06T00:06:19;100747.79;;;10.45;58.42
70256;BME280;57669;52.624;-1.688;2023-04-06T00:08:45;100750.46;;;6.64;69.33
70256;BME280;57669;52.624;-1.688;2023-04-06T00:11:10;100748.32;;;7.20;69.71
70256;BME280;57669;52.624;-1.688;2023-04-06T00:13:39;100753.42;;;8.44;65.61
70256;BME280;57669;52.624;-1.688;2023-04-06T00:16:01;100750.89;;;7.45;67.41
70256;BME280;57669;52.624;-1.688;2023-04-06T00:18:25;100746.18;;;9.63;62.42
70256;BME280;57669;52.624;-1.688;2023-04-06T00:20:51;100746.32;;;6.83;70.42
70256;BME280;57669;52.624;-1.688;2023-04-06T00:23:16;100746.42;;;7.65;66.96
70256;BME280;57669;52.624;-1.688;2023-04-06T00:25:42;100744.11;;;7.62;67.57
70256;BME280;57669;52.624;-1.688;2023-04-06T00:28:07;100740.33;;;8.58;64.27
70256;BME280;57669;52.624;-1.688;2023-04-06T00:30:33;100740.39;;;8.00;65.28
70256;BME280;57669;52.624;-1.688;2023-04-06T00:32:58;100735.21;;;8.29;64.77
70256;BME280;57669;52.624;-1.688;2023-04-06T00:35:24;100730.70;;;8.59;64.37
70256;BME280;57669;52.624;-1.688;2023-04-06T00:37:49;100725.80;;;9.24;62.68
70256;BME280;57669;52.624;-1.688;2023-04-06T00:40:15;100722.57;;;9.35;63.08
70256;BME280;57669;52.624;-1.688;2023-04-06T00:42:41;100724.92;;;7.42;66.52
70256;BME280;57669;52.624;-1.688;2023-04-06T00:45:07;100720.65;;;8.67;64.79
70256;BME280;57669;52.624;-1.688;2023-04-06T00:47:31;100720.40;;;7.80;66.36
70256;BME280;57669;52.624;-1.688;2023-04-06T00:49:57;100714.61;;;9.34;63.00
70256;BME280;57669;52.624;-1.688;2023-04-06T00:52:22;100716.85;;;7.33;67.07
70256;BME280;57669;52.624;-1.688;2023-04-06T00:54:48;100714.73;;;7.88;66.11
70256;BME280;57669;52.624;-1.688;2023-04-06T00:57:13;100704.97;;;6.44;69.47
70256;BME280;57669;52.624;-1.688;2023-04-06T00:59:39;100697.89;;;8.01;66.91
70256;BME280;57669;52.624;-1.688;2023-04-06T01:02:04;100694.23;;;9.01;63.46
70256;BME280;57669;52.624;-1.688;2023-04-06T01:04:29;100695.25;;;8.39;64.96
70256;BME280;57669;52.624;-1.688;2023-04-06T01:06:55;100691.98;;;8.96;63.66
70256;BME280;57669;52.624;-1.688;2023-04-06T01:09:21;100689.03;;;8.61;63.36
70256;BME280;57669;52.624;-1.688;2023-04-06T01:11:45;100684.49;;;8.44;63.07
70256;BME280;57669;52.624;-1.688;2023-04-06T01:14:11;100683.50;;;8.01;64.87
70256;BME280;57669;52.624;-1.688;2023-04-06T01:16:37;100678.40;;;8.47;63.93
70256;BME280;57669;52.624;-1.688;2023-04-06T01:19:07;100676.80;;;7.73;65.46
70256;BME280;57669;52.624;-1.688;2023-04-06T01:21:27;100673.04;;;9.52;60.85
70256;BME280;57669;52.624;-1.688;2023-04-06T01:23:52;100673.97;;;9.07;62.55
70256;BME280;57669;52.624;-1.688;2023-04-06T01:26:18;100674.73;;;10.13;60.50
70256;BME280;57669;52.624;-1.688;2023-04-06T01:28:44;100672.21;;;8.88;62.22
70256;BME280;57669;52.624;-1.688;2023-04-06T01:31:10;100668.80;;;8.67;62.78
70256;BME280;57669;52.624;-1.688;2023-04-06T01:33:35;100661.04;;;7.90;63.76
70256;BME280;57669;52.624;-1.688;2023-04-06T01:36:01;100656.75;;;9.26;61.88
70256;BME280;57669;52.624;-1.688;2023-04-06T01:38:26;100658.34;;;9.83;59.65
70256;BME280;57669;52.624;-1.688;2023-04-06T01:40:52;100656.16;;;9.10;61.43
70256;BME280;57669;52.624;-1.688;2023-04-06T01:43:17;100654.98;;;7.71;64.57
70256;BME280;57669;52.624;-1.688;2023-04-06T01:45:43;100651.79;;;9.58;61.65
70256;BME280;57669;52.624;-1.688;2023-04-06T01:48:08;100649.26;;;8.53;62.76
70256;BME280;57669;52.624;-1.688;2023-04-06T01:50:34;100646.29;;;7.60;66.73
70256;BME280;57669;52.624;-1.688;2023-04-06T01:52:59;100642.21;;;9.05;63.40
70256;BME280;57669;52.624;-1.688;2023-04-06T01:55:25;100645.79;;;9.43;61.82
70256;BME280;57669;52.624;-1.688;2023-04-06T01:57:51;100642.69;;;9.64;60.78
70256;BME280;57669;52.624;-1.688;2023-04-06T02:00:16;100634.56;;;8.44;63.06
70256;BME280;57669;52.624;-1.688;2023-04-06T02:02:42;100627.55;;;8.73;62.49
70256;BME280;57669;52.624;-1.688;2023-04-06T02:05:08;100624.19;;;7.88;65.52
70256;BME280;57669;52.624;-1.688;2023-04-06T02:07:33;100620.67;;;8.62;63.85
70256;BME280;57669;52.624;-1.688;2023-04-06T02:09:59;100618.49;;;10.23;59.36
70256;BME280;57669;52.624;-1.688;2023-04-06T02:12:24;100617.72;;;9.34;59.94
70256;BME280;57669;52.624;-1.688;2023-04-06T02:14:49;100617.80;;;9.32;60.84
70256;BME280;57669;52.624;-1.688;2023-04-06T02:17:15;100610.38;;;9.71;59.53
70256;BME280;57669;52.624;-1.688;2023-04-06T02:19:40;100616.33;;;8.91;62.01
70256;BME280;57669;52.624;-1.688;2023-04-06T02:22:06;100609.45;;;9.57;60.70
70256;BME280;57669;52.624;-1.688;2023-04-06T02:24:31;100610.33;;;9.50;61.08
70256;BME280;57669;52.624;-1.688;2023-04-06T02:26:56;100613.46;;;9.71;60.22
70256;BME280;57669;52.624;-1.688;2023-04-06T02:29:23;100609.56;;;9.96;59.24
70256;BME280;57669;52.624;-1.688;2023-04-06T02:31:48;100609.00;;;9.28;60.76
70256;BME280;57669;52.624;-1.688;2023-04-06T02:34:13;100603.12;;;10.49;58.46
70256;BME280;57669;52.624;-1.688;2023-04-06T02:36:39;100603.96;;;9.31;60.60
70256;BME280;57669;52.624;-1.688;2023-04-06T02:39:05;100601.96;;;10.19;58.52
70256;BME280;57669;52.624;-1.688;2023-04-06T02:41:31;100605.41;;;9.55;58.97
70256;BME280;57669;52.624;-1.688;2023-04-06T02:43:56;100610.19;;;8.10;62.84
70256;BME280;57669;52.624;-1.688;2023-04-06T02:46:22;100601.43;;;9.84;59.83
70256;BME280;57669;52.624;-1.688;2023-04-06T02:48:47;100595.50;;;9.05;60.09
70256;BME280;57669;52.624;-1.688;2023-04-06T02:51:12;100593.13;;;9.81;58.64
70256;BME280;57669;52.624;-1.688;2023-04-06T02:53:38;100593.06;;;10.72;57.04
70256;BME280;57669;52.624;-1.688;2023-04-06T02:56:05;100591.23;;;10.20;58.79
70256;BME280;57669;52.624;-1.688;2023-04-06T02:58:29;100588.95;;;11.21;56.19
70256;BME280;57669;52.624;-1.688;2023-04-06T03:00:55;100584.69;;;10.89;57.54
70256;BME280;57669;52.624;-1.688;2023-04-06T03:03:21;100586.81;;;10.21;58.26
70256;BME280;57669;52.624;-1.688;2023-04-06T03:05:46;100584.45;;;10.32;58.24
70256;BME280;57669;52.624;-1.688;2023-04-06T03:08:12;100586.35;;;10.36;57.49
70256;BME280;57669;52.624;-1.688;2023-04-06T03:10:37;100581.94;;;9.77;59.18
70256;BME280;57669;52.624;-1.688;2023-04-06T03:13:02;100582.95;;;8.04;64.17
70256;BME280;57669;52.624;-1.688;2023-04-06T03:15:28;100574.69;;;9.28;60.86
70256;BME280;57669;52.624;-1.688;2023-04-06T03:17:53;100571.60;;;9.43;60.18
70256;BME280;57669;52.624;-1.688;2023-04-06T03:20:18;100566.94;;;9.28;59.96
70256;BME280;57669;52.624;-1.688;2023-04-06T03:22:44;100559.56;;;7.79;64.06
70256;BME280;57669;52.624;-1.688;2023-04-06T03:25:10;100549.98;;;8.42;64.66
70256;BME280;57669;52.624;-1.688;2023-04-06T03:27:35;100548.99;;;8.95;62.98
70256;BME280;57669;52.624;-1.688;2023-04-06T03:30:00;100545.16;;;9.84;59.20
70256;BME280;57669;52.624;-1.688;2023-04-06T03:32:26;100545.30;;;10.22;58.72
70256;BME280;57669;52.624;-1.688;2023-04-06T03:34:52;100543.72;;;9.93;58.21
70256;BME280;57669;52.624;-1.688;2023-04-06T03:37:17;100531.74;;;10.78;57.17
70256;BME280;57669;52.624;-1.688;2023-04-06T03:39:42;100527.25;;;9.41;59.51
70256;BME280;57669;52.624;-1.688;2023-04-06T03:42:08;100529.25;;;11.37;55.61
70256;BME280;57669;52.624;-1.688;2023-04-06T03:44:33;100524.95;;;11.79;53.97
70256;BME280;57669;52.624;-1.688;2023-04-06T03:46:59;100524.18;;;11.87;53.68
70256;BME280;57669;52.624;-1.688;2023-04-06T03:49:25;100525.25;;;10.12;56.79
70256;BME280;57669;52.624;-1.688;2023-04-06T03:51:50;100522.85;;;11.10;55.10
70256;BME280;57669;52.624;-1.688;2023-04-06T03:54:15;100515.56;;;11.60;54.02
70256;BME280;57669;52.624;-1.688;2023-04-06T03:56:47;100515.26;;;9.02;59.96
70256;BME280;57669;52.624;-1.688;2023-04-06T03:59:07;100517.97;;;10.43;56.45
70256;BME280;57669;52.624;-1.688;2023-04-06T04:01:32;100515.48;;;9.49;60.45
70256;BME280;57669;52.624;-1.688;2023-04-06T04:03:57;100514.14;;;8.20;61.66
70256;BME280;57669;52.624;-1.688;2023-04-06T04:06:23;100517.26;;;10.39;57.34
70256;BME280;57669;52.624;-1.688;2023-04-06T04:08:49;100507.02;;;8.49;62.44
70256;BME280;57669;52.624;-1.688;2023-04-06T04:11:14;100505.37;;;10.24;58.38
70256;BME280;57669;52.624;-1.688;2023-04-06T04:13:40;100507.06;;;8.60;61.85
70256;BME280;57669;52.624;-1.688;2023-04-06T04:16:06;100507.76;;;9.93;60.04
70256;BME280;57669;52.624;-1.688;2023-04-06T04:18:31;100505.24;;;9.89;58.75
70256;BME280;57669;52.624;-1.688;2023-04-06T04:20:56;100504.21;;;10.57;58.25
70256;BME280;57669;52.624;-1.688;2023-04-06T04:23:22;100500.46;;;9.19;61.01
70256;BME280;57669;52.624;-1.688;2023-04-06T04:25:48;100500.31;;;9.22;61.29
70256;BME280;57669;52.624;-1.688;2023-04-06T04:28:13;100501.24;;;7.30;66.34
70256;BME280;57669;52.624;-1.688;2023-04-06T04:30:38;100499.39;;;10.54;58.67
70256;BME280;57669;52.624;-1.688;2023-04-06T04:33:03;100500.33;;;10.65;57.07
70256;BME280;57669;52.624;-1.688;2023-04-06T04:35:29;100493.51;;;9.14;61.27
70256;BME280;57669;52.624;-1.688;2023-04-06T04:37:54;100488.87;;;9.00;61.94
70256;BME280;57669;52.624;-1.688;2023-04-06T04:40:20;100492.38;;;7.78;65.24
70256;BME280;57669;52.624;-1.688;2023-04-06T04:42:46;100496.12;;;10.11;59.47
70256;BME280;57669;52.624;-1.688;2023-04-06T04:45:11;100502.09;;;10.65;57.58
70256;BME280;57669;52.624;-1.688;2023-04-06T04:47:37;100491.38;;;11.63;55.65
70256;BME280;57669;52.624;-1.688;2023-04-06T04:50:02;100491.62;;;10.97;56.31
70256;BME280;57669;52.624;-1.688;2023-04-06T04:52:28;100501.23;;;10.06;58.20
70256;BME280;57669;52.624;-1.688;2023-04-06T04:54:54;100505.77;;;8.58;62.08
70256;BME280;57669;52.624;-1.688;2023-04-06T04:57:20;100507.67;;;10.69;57.34
70256;BME280;57669;52.624;-1.688;2023-04-06T04:59:45;100502.30;;;8.54;61.74
70256;BME280;57669;52.624;-1.688;2023-04-06T05:02:11;100501.36;;;11.46;55.62
70256;BME280;57669;52.624;-1.688;2023-04-06T05:04:36;100512.14;;;10.46;57.42
70256;BME280;57669;52.624;-1.688;2023-04-06T05:07:04;100516.49;;;9.87;58.71
70256;BME280;57669;52.624;-1.688;2023-04-06T05:09:26;100518.50;;;9.89;58.87
70256;BME280;57669;52.624;-1.688;2023-04-06T05:11:52;100517.89;;;8.19;64.13
70256;BME280;57669;52.624;-1.688;2023-04-06T05:14:17;100511.67;;;10.28;58.75
70256;BME280;57669;52.624;-1.688;2023-04-06T05:16:43;100506.39;;;10.12;58.41
70256;BME280;57669;52.624;-1.688;2023-04-06T05:19:08;100500.43;;;9.50;59.83
70256;BME280;57669;52.624;-1.688;2023-04-06T05:21:34;100495.69;;;8.53;63.34
70256;BME280;57669;52.624;-1.688;2023-04-06T05:23:59;100499.93;;;9.97;60.25
70256;BME280;57669;52.624;-1.688;2023-04-06T05:26:24;100497.07;;;8.89;62.43
70256;BME280;57669;52.624;-1.688;2023-04-06T05:28:50;100502.50;;;9.79;59.29
70256;BME280;57669;52.624;-1.688;2023-04-06T05:31:15;100498.36;;;11.45;55.60
70256;BME280;57669;52.624;-1.688;2023-04-06T05:33:41;100505.33;;;9.63;58.96
70256;BME280;57669;52.624;-1.688;2023-04-06T05:36:07;100506.99;;;9.86;59.66
70256;BME280;57669;52.624;-1.688;2023-04-06T05:38:31;100508.48;;;9.95;59.49
70256;BME280;57669;52.624;-1.688;2023-04-06T05:40:57;100505.52;;;10.76;57.24
70256;BME280;57669;52.624;-1.688;2023-04-06T05:43:22;100498.35;;;11.47;55.53
70256;BME280;57669;52.624;-1.688;2023-04-06T05:45:47;100499.96;;;9.00;60.19
70256;BME280;57669;52.624;-1.688;2023-04-06T05:48:13;100501.12;;;9.24;61.17
70256;BME280;57669;52.624;-1.688;2023-04-06T05:50:39;100500.92;;;11.78;54.80
70256;BME280;57669;52.624;-1.688;2023-04-06T05:53:04;100504.41;;;11.44;55.36
70256;BME280;57669;52.624;-1.688;2023-04-06T05:55:29;100508.98;;;10.14;58.41
70256;BME280;57669;52.624;-1.688;2023-04-06T05:57:54;100514.26;;;10.59;57.40
70256;BME280;57669;52.624;-1.688;2023-04-06T06:00:20;100513.28;;;10.86;55.12
70256;BME280;57669;52.624;-1.688;2023-04-06T06:02:45;100518.43;;;10.33;57.76
70256;BME280;57669;52.624;-1.688;2023-04-06T06:05:11;100519.53;;;11.01;55.99
70256;BME280;57669;52.624;-1.688;2023-04-06T06:07:36;100522.86;;;10.54;55.97
70256;BME280;57669;52.624;-1.688;2023-04-06T06:10:02;100521.64;;;9.38;60.04
70256;BME280;57669;52.624;-1.688;2023-04-06T06:12:28;100521.08;;;9.37;59.90
70256;BME280;57669;52.624;-1.688;2023-04-06T06:14:54;100527.37;;;9.60;59.95
70256;BME280;57669;52.624;-1.688;2023-04-06T06:17:19;100530.07;;;8.19;63.86
70256;BME280;57669;52.624;-1.688;2023-04-06T06:19:45;100532.54;;;7.48;66.55
70256;BME280;57669;52.624;-1.688;2023-04-06T06:22:11;100531.38;;;9.03;62.66
70256;BME280;57669;52.624;-1.688;2023-04-06T06:24:36;100539.06;;;8.57;64.02
70256;BME280;57669;52.624;-1.688;2023-04-06T06:27:02;100536.21;;;8.80;63.01
70256;BME280;57669;52.624;-1.688;2023-04-06T06:29:28;100538.21;;;9.16;62.35
70256;BME280;57669;52.624;-1.688;2023-04-06T06:31:53;100537.72;;;8.54;64.01
70256;BME280;57669;52.624;-1.688;2023-04-06T06:34:18;100545.44;;;8.87;63.31
70256;BME280;57669;52.624;-1.688;2023-04-06T06:36:44;100545.01;;;9.63;61.56
70256;BME280;57669;52.624;-1.688;2023-04-06T06:39:09;100550.20;;;8.15;64.46
70256;BME280;57669;52.624;-1.688;2023-04-06T06:41:34;100554.41;;;7.53;66.71
70256;BME280;57669;52.624;-1.688;2023-04-06T06:44:00;100551.92;;;8.34;65.74
70256;BME280;57669;52.624;-1.688;2023-04-06T06:46:26;100558.56;;;8.13;65.34
70256;BME280;57669;52.624;-1.688;2023-04-06T06:48:51;100563.96;;;8.02;67.07
70256;BME280;57669;52.624;-1.688;2023-04-06T06:51:17;100565.63;;;6.88;69.83
70256;BME280;57669;52.624;-1.688;2023-04-06T06:53:42;100565.95;;;7.14;69.73
70256;BME280;57669;52.624;-1.688;2023-04-06T06:56:08;100561.77;;;7.69;68.54
70256;BME280;57669;52.624;-1.688;2023-04-06T06:58:33;100566.19;;;7.57;68.41
70256;BME280;57669;52.624;-1.688;2023-04-06T07:00:59;100572.14;;;7.35;68.78
70256;BME280;57669;52.624;-1.688;2023-04-06T07:03:24;100576.46;;;7.70;67.52
70256;BME280;57669;52.624;-1.688;2023-04-06T07:05:50;100576.99;;;8.41;65.49
70256;BME280;57669;52.624;-1.688;2023-04-06T07:08:16;100577.30;;;6.77;69.74
70256;BME280;57669;52.624;-1.688;2023-04-06T07:10:41;100581.02;;;6.98;69.44
70256;BME280;57669;52.624;-1.688;2023-04-06T07:13:06;100586.25;;;7.36;69.96
70256;BME280;57669;52.624;-1.688;2023-04-06T07:15:32;100590.75;;;6.38;71.25
70256;BME280;57669;52.624;-1.688;2023-04-06T07:17:57;100585.32;;;7.26;70.37
70256;BME280;57669;52.624;-1.688;2023-04-06T07:20:22;100586.63;;;7.06;70.44
70256;BME280;57669;52.624;-1.688;2023-04-06T07:22:48;100588.04;;;6.91;70.16
70256;BME280;57669;52.624;-1.688;2023-04-06T07:25:14;100591.67;;;7.40;69.93
70256;BME280;57669;52.624;-1.688;2023-04-06T07:27:39;100602.41;;;6.99;69.97
70256;BME280;57669;52.624;-1.688;2023-04-06T07:30:06;100610.77;;;7.20;69.66
70256;BME280;57669;52.624;-1.688;2023-04-06T07:32:30;100616.35;;;6.66;70.97
70256;BME280;57669;52.624;-1.688;2023-04-06T07:34:56;100620.58;;;7.73;70.23
70256;BME280;57669;52.624;-1.688;2023-04-06T07:37:21;100620.80;;;7.36;70.07
70256;BME280;57669;52.624;-1.688;2023-04-06T07:39:47;100625.36;;;6.53;71.02
70256;BME280;57669;52.624;-1.688;2023-04-06T07:42:13;100627.46;;;6.59;70.26
70256;BME280;57669;52.624;-1.688;2023-04-06T07:44:38;100629.29;;;6.51;70.21
70256;BME280;57669;52.624;-1.688;2023-04-06T07:47:04;100632.33;;;7.05;68.77
70256;BME280;57669;52.624;-1.688;2023-04-06T07:49:31;100624.95;;;6.71;69.40
70256;BME280;57669;52.624;-1.688;2023-04-06T07:51:56;100623.93;;;7.10;69.01
70256;BME280;57669;52.624;-1.688;2023-04-06T07:54:21;100628.70;;;7.20;67.14
70256;BME280;57669;52.624;-1.688;2023-04-06T07:56:47;100627.91;;;7.39;65.73
70256;BME280;57669;52.624;-1.688;2023-04-06T07:59:12;100630.53;;;7.27;65.90
70256;BME280;57669;52.624;-1.688;2023-04-06T08:01:37;100638.01;;;7.06;67.15
70256;BME280;57669;52.624;-1.688;2023-04-06T08:04:03;100642.06;;;6.52;68.06
70256;BME280;57669;52.624;-1.688;2023-04-06T08:06:28;100640.57;;;6.84;68.27
70256;BME280;57669;52.624;-1.688;2023-04-06T08:08:54;100647.64;;;6.98;67.44
70256;BME280;57669;52.624;-1.688;2023-04-06T08:11:19;100645.87;;;6.86;68.00
70256;BME280;57669;52.624;-1.688;2023-04-06T08:13:45;100651.08;;;7.03;67.30
70256;BME280;57669;52.624;-1.688;2023-04-06T08:16:11;100649.16;;;7.46;66.30
70256;BME280;57669;52.624;-1.688;2023-04-06T08:18:36;100649.46;;;7.68;65.84
70256;BME280;57669;52.624;-1.688;2023-04-06T08:21:02;100654.81;;;7.23;65.82
70256;BME280;57669;52.624;-1.688;2023-04-06T08:23:27;100647.79;;;8.05;62.62
70256;BME280;57669;52.624;-1.688;2023-04-06T08:25:52;100650.62;;;8.43;61.26
70256;BME280;57669;52.624;-1.688;2023-04-06T08:28:18;100650.23;;;7.95;61.53
70256;BME280;57669;52.624;-1.688;2023-04-06T08:30:43;100646.86;;;7.74;63.96
70256;BME280;57669;52.624;-1.688;2023-04-06T08:33:09;100637.45;;;8.25;62.67
70256;BME280;57669;52.624;-1.688;2023-04-06T08:35:34;100638.08;;;6.47;65.05
70256;BME280;57669;52.624;-1.688;2023-04-06T08:38:00;100638.33;;;5.49;67.74
70256;BME280;57669;52.624;-1.688;2023-04-06T08:40:25;100643.80;;;6.80;64.70
70256;BME280;57669;52.624;-1.688;2023-04-06T08:42:54;100648.85;;;6.77;64.36
70256;BME280;57669;52.624;-1.688;2023-04-06T08:45:16;100649.56;;;7.25;63.82
70256;BME280;57669;52.624;-1.688;2023-04-06T08:47:42;100653.69;;;7.19;64.61
70256;BME280;57669;52.624;-1.688;2023-04-06T08:50:09;100662.49;;;7.02;62.91
70256;BME280;57669;52.624;-1.688;2023-04-06T08:52:32;100669.78;;;6.85;64.29
70256;BME280;57669;52.624;-1.688;2023-04-06T08:54:59;100670.71;;;6.58;65.50
70256;BME280;57669;52.624;-1.688;2023-04-06T08:57:23;100671.50;;;6.93;65.24
70256;BME280;57669;52.624;-1.688;2023-04-06T08:59:49;100667.93;;;6.45;66.22
70256;BME280;57669;52.624;-1.688;2023-04-06T09:02:17;100668.66;;;7.84;63.50
70256;BME280;57669;52.624;-1.688;2023-04-06T09:04:40;100671.77;;;7.38;63.80
70256;BME280;57669;52.624;-1.688;2023-04-06T09:07:05;100667.81;;;7.82;62.33
70256;BME280;57669;52.624;-1.688;2023-04-06T09:09:31;100675.02;;;8.73;59.91
70256;BME280;57669;52.624;-1.688;2023-04-06T09:11:57;100673.28;;;8.92;59.82
70256;BME280;57669;52.624;-1.688;2023-04-06T09:16:48;100690.14;;;7.17;64.51
70256;BME280;57669;52.624;-1.688;2023-04-06T09:19:13;100691.34;;;8.89;58.09
70256;BME280;57669;52.624;-1.688;2023-04-06T09:21:39;100691.68;;;8.23;59.93
70256;BME280;57669;52.624;-1.688;2023-04-06T09:24:05;100696.88;;;8.45;57.61
70256;BME280;57669;52.624;-1.688;2023-04-06T09:26:30;100698.00;;;7.92;60.05
70256;BME280;57669;52.624;-1.688;2023-04-06T09:28:57;100692.25;;;8.52;58.54
70256;BME280;57669;52.624;-1.688;2023-04-06T09:31:23;100688.18;;;9.10;57.34
70256;BME280;57669;52.624;-1.688;2023-04-06T09:33:45;100682.59;;;9.07;56.45
70256;BME280;57669;52.624;-1.688;2023-04-06T09:36:11;100682.72;;;10.56;54.25
70256;BME280;57669;52.624;-1.688;2023-04-06T09:38:37;100687.48;;;10.54;54.71
70256;BME280;57669;52.624;-1.688;2023-04-06T09:41:02;100686.48;;;10.35;52.66
70256;BME280;57669;52.624;-1.688;2023-04-06T09:43:29;100689.35;;;9.89;53.65
70256;BME280;57669;52.624;-1.688;2023-04-06T09:45:55;100696.58;;;8.65;55.13
70256;BME280;57669;52.624;-1.688;2023-04-06T09:48:20;100693.24;;;9.09;53.68
70256;BME280;57669;52.624;-1.688;2023-04-06T09:50:46;100695.98;;;11.46;50.76
70256;BME280;57669;52.624;-1.688;2023-04-06T09:53:11;100693.03;;;11.62;47.25
70256;BME280;57669;52.624;-1.688;2023-04-06T09:55:42;100685.51;;;15.52;41.32
70256;BME280;57669;52.624;-1.688;2023-04-06T09:58:04;100685.18;;;11.78;45.51
70256;BME280;57669;52.624;-1.688;2023-04-06T10:00:29;100687.51;;;12.84;44.30
70256;BME280;57669;52.624;-1.688;2023-04-06T10:02:58;100685.35;;;13.56;42.87
70256;BME280;57669;52.624;-1.688;2023-04-06T10:05:28;100686.63;;;12.55;45.44
70256;BME280;57669;52.624;-1.688;2023-04-06T10:07:46;100692.49;;;11.30;46.50
70256;BME280;57669;52.624;-1.688;2023-04-06T10:10:11;100698.01;;;12.83;44.34
70256;BME280;57669;52.624;-1.688;2023-04-06T10:12:37;100707.10;;;11.49;47.82
70256;BME280;57669;52.624;-1.688;2023-04-06T10:15:03;100702.26;;;10.11;50.96
70256;BME280;57669;52.624;-1.688;2023-04-06T10:17:28;100710.06;;;9.44;51.82
70256;BME280;57669;52.624;-1.688;2023-04-06T10:19:57;100710.43;;;9.92;52.12
70256;BME280;57669;52.624;-1.688;2023-04-06T10:22:26;100712.35;;;8.61;55.57
70256;BME280;57669;52.624;-1.688;2023-04-06T10:24:45;100719.57;;;8.09;54.43
70256;BME280;57669;52.624;-1.688;2023-04-06T10:27:10;100724.80;;;7.87;54.94
70256;BME280;57669;52.624;-1.688;2023-04-06T10:29:42;100730.76;;;6.91;56.77
70256;BME280;57669;52.624;-1.688;2023-04-06T10:32:02;100731.91;;;8.09;55.12
70256;BME280;57669;52.624;-1.688;2023-04-06T10:34:34;100730.17;;;8.52;56.20
70256;BME280;57669;52.624;-1.688;2023-04-06T10:36:53;100725.94;;;9.19;52.70
70256;BME280;57669;52.624;-1.688;2023-04-06T10:39:24;100726.06;;;7.78;53.10
70256;BME280;57669;52.624;-1.688;2023-04-06T10:41:45;100730.04;;;8.46;52.37
70256;BME280;57669;52.624;-1.688;2023-04-06T10:44:17;100739.88;;;8.51;52.62
70256;BME280;57669;52.624;-1.688;2023-04-06T10:46:37;100734.46;;;8.71;51.34
70256;BME280;57669;52.624;-1.688;2023-04-06T10:49:10;100732.40;;;8.14;51.17
70256;BME280;57669;52.624;-1.688;2023-04-06T10:51:28;100737.89;;;8.51;49.65
70256;BME280;57669;52.624;-1.688;2023-04-06T10:53:55;100743.03;;;7.91;49.23
70256;BME280;57669;52.624;-1.688;2023-04-06T10:56:23;100741.17;;;9.07;50.06
70256;BME280;57669;52.624;-1.688;2023-04-06T10:58:46;100739.39;;;9.89;48.74
70256;BME280;57669;52.624;-1.688;2023-04-06T11:01:11;100733.16;;;9.03;50.76
70256;BME280;57669;52.624;-1.688;2023-04-06T11:03:42;100729.10;;;11.09;46.98
70256;BME280;57669;52.624;-1.688;2023-04-06T11:06:03;100735.33;;;11.36;47.53
70256;BME280;57669;52.624;-1.688;2023-04-06T11:08:30;100732.76;;;12.28;44.78
70256;BME280;57669;52.624;-1.688;2023-04-06T11:13:20;100734.68;;;11.51;42.05
70256;BME280;57669;52.624;-1.688;2023-04-06T11:15:46;100731.73;;;11.60;41.40
70256;BME280;57669;52.624;-1.688;2023-04-06T11:18:12;100734.67;;;12.65;40.34
70256;BME280;57669;52.624;-1.688;2023-04-06T11:20:37;100733.62;;;11.65;42.11
70256;BME280;57669;52.624;-1.688;2023-04-06T11:23:03;100741.33;;;9.54;44.68
70256;BME280;57669;52.624;-1.688;2023-04-06T11:25:28;100739.56;;;9.66;44.51
70256;BME280;57669;52.624;-1.688;2023-04-06T11:27:54;100735.33;;;10.63;42.10
70256;BME280;57669;52.624;-1.688;2023-04-06T11:30:20;100732.82;;;12.25;39.86
70256;BME280;57669;52.624;-1.688;2023-04-06T11:32:46;100733.10;;;12.50;38.36
70256;BME280;57669;52.624;-1.688;2023-04-06T11:35:20;100735.49;;;14.80;35.47
70256;BME280;57669;52.624;-1.688;2023-04-06T11:37:37;100742.66;;;14.01;32.78
70256;BME280;57669;52.624;-1.688;2023-04-06T11:40:03;100740.38;;;13.08;36.44
70256;BME280;57669;52.624;-1.688;2023-04-06T11:42:29;100739.42;;;12.29;35.32
70256;BME280;57669;52.624;-1.688;2023-04-06T11:44:55;100749.67;;;12.20;37.83
70256;BME280;57669;52.624;-1.688;2023-04-06T11:47:20;100755.77;;;10.50;40.80
70256;BME280;57669;52.624;-1.688;2023-04-06T11:49:45;100756.68;;;10.99;40.99
70256;BME280;57669;52.624;-1.688;2023-04-06T11:52:16;100751.38;;;13.61;38.13
70256;BME280;57669;52.624;-1.688;2023-04-06T11:54:37;100745.84;;;15.60;34.87
70256;BME280;57669;52.624;-1.688;2023-04-06T11:57:08;100741.75;;;16.35;32.47
70256;BME280;57669;52.624;-1.688;2023-04-06T11:59:27;100740.37;;;15.10;32.05
70256;BME280;57669;52.624;-1.688;2023-04-06T12:01:53;100742.81;;;15.15;31.90
70256;BME280;57669;52.624;-1.688;2023-04-06T12:04:18;100737.50;;;12.42;36.36
70256;BME280;57669;52.624;-1.688;2023-04-06T12:06:44;100745.65;;;15.72;32.98
70256;BME280;57669;52.624;-1.688;2023-04-06T12:09:10;100749.94;;;15.57;33.04
70256;BME280;57669;52.624;-1.688;2023-04-06T12:11:35;100744.73;;;13.95;32.70
70256;BME280;57669;52.624;-1.688;2023-04-06T12:14:01;100743.45;;;12.55;35.83
70256;BME280;57669;52.624;-1.688;2023-04-06T12:16:26;100762.01;;;11.50;36.99
70256;BME280;57669;52.624;-1.688;2023-04-06T12:18:52;100755.58;;;10.51;39.31
70256;BME280;57669;52.624;-1.688;2023-04-06T12:21:18;100760.07;;;9.64;41.37
70256;BME280;57669;52.624;-1.688;2023-04-06T12:23:44;100766.04;;;11.26;40.13
70256;BME280;57669;52.624;-1.688;2023-04-06T12:26:09;100758.07;;;12.67;38.04
70256;BME280;57669;52.624;-1.688;2023-04-06T12:28:35;100760.89;;;12.98;36.06
70256;BME280;57669;52.624;-1.688;2023-04-06T12:31:01;100766.99;;;12.54;36.55
70256;BME280;57669;52.624;-1.688;2023-04-06T12:33:27;100768.58;;;12.84;36.59
70256;BME280;57669;52.624;-1.688;2023-04-06T12:35:52;100767.92;;;13.15;36.59
70256;BME280;57669;52.624;-1.688;2023-04-06T12:38:18;100764.92;;;12.75;36.44
70256;BME280;57669;52.624;-1.688;2023-04-06T12:40:43;100767.54;;;14.44;35.15
70256;BME280;57669;52.624;-1.688;2023-04-06T12:43:09;100768.54;;;16.16;31.78